sensor_id;sensor_type;location;lat;lon;timestamp;pressure;altitude;pressure_sealevel;temperature;humidity
9139;BME280;4604;48.616;9.548;2022-11-20T00:00:21;96394.31;;;6.10;100.00
9139;BME280;4604;48.616;9.548;2022-11-20T00:02:49;96390.25;;;6.06;100.00
9139;BME280;4604;48.616;9.548;2022-11-20T00:05:16;96391.09;;;6.07;100.00
9139;BME280;4604;48.616;9.548;2022-11-20T00:07:43;96381.00;;;5.91;100.00
9139;BME280;4604;48.616;9.548;2022-11-20T00:10:10;96376.84;;;5.88;100.00
9139;BME280;4604;48.616;9.548;2022-11-20T00:12:37;96389.22;;;5.86;100.00
9139;BME280;4604;48.616;9.548;2022-11-20T00:15:04;96401.72;;;5.83;100.00
9139;BME280;4604;48.616;9.548;2022-11-20T00:17:32;96398.06;;;5.74;100.00
9139;BME280;4604;48.616;9.548;2022-11-20T00:19:59;96403.75;;;5.79;100.00
9139;BME280;4604;48.616;9.548;2022-11-20T00:22:26;96386.97;;;5.82;100.00
9139;BME280;4604;48.616;9.548;2022-11-20T00:24:52;96400.31;;;5.78;100.00
9139;BME280;4604;48.616;9.548;2022-11-20T00:27:19;96410.66;;;5.80;100.00
9139;BME280;4604;48.616;9.548;2022-11-20T00:29:46;96403.91;;;5.66;100.00
9139;BME280;4604;48.616;9.548;2022-11-20T00:32:13;96409.00;;;5.68;100.00
9139;BME280;4604;48.616;9.548;2022-11-20T00:34:41;96405.91;;;5.74;100.00
9139;BME280;4604;48.616;9.548;2022-11-20T00:37:07;96406.50;;;5.77;100.00
9139;BME280;4604;48.616;9.548;2022-11-20T00:39:34;96410.56;;;5.70;100.00
9139;BME280;4604;48.616;9.548;2022-11-20T00:42:01;96411.31;;;5.61;100.00
9139;BME280;4604;48.616;9.548;2022-11-20T00:44:27;96406.06;;;5.61;100.00
9139;BME280;4604;48.616;9.548;2022-11-20T00:46:54;96413.56;;;5.66;100.00
9139;BME280;4604;48.616;9.548;2022-11-20T00:49:21;96374.47;;;5.30;100.00
9139;BME280;4604;48.616;9.548;2022-11-20T00:51:49;96417.97;;;5.54;100.00
9139;BME280;4604;48.616;9.548;2022-11-20T00:54:16;96417.97;;;5.54;100.00
9139;BME280;4604;48.616;9.548;2022-11-20T00:56:42;96420.59;;;5.54;100.00
9139;BME280;4604;48.616;9.548;2022-11-20T00:59:09;96421.53;;;5.53;100.00
9139;BME280;4604;48.616;9.548;2022-11-20T01:01:37;96418.41;;;5.70;100.00
9139;BME280;4604;48.616;9.548;2022-11-20T01:04:07;96417.00;;;5.66;100.00
9139;BME280;4604;48.616;9.548;2022-11-20T01:06:35;96417.72;;;5.68;100.00
9139;BME280;4604;48.616;9.548;2022-11-20T01:09:05;96420.09;;;5.71;100.00
9139;BME280;4604;48.616;9.548;2022-11-20T01:11:34;96424.25;;;5.74;100.00
9139;BME280;4604;48.616;9.548;2022-11-20T01:14:04;96422.72;;;5.71;100.00
9139;BME280;4604;48.616;9.548;2022-11-20T01:16:33;96419.84;;;5.63;100.00
9139;BME280;4604;48.616;9.548;2022-11-20T01:19:02;96421.78;;;5.61;100.00
9139;BME280;4604;48.616;9.548;2022-11-20T01:21:30;96419.97;;;5.62;99.98
9139;BME280;4604;48.616;9.548;2022-11-20T01:23:58;96429.38;;;5.64;99.60
9139;BME280;4604;48.616;9.548;2022-11-20T01:26:29;96426.50;;;5.67;98.87
9139;BME280;4604;48.616;9.548;2022-11-20T01:28:58;96425.78;;;5.65;98.55
9139;BME280;4604;48.616;9.548;2022-11-20T01:31:27;96426.16;;;5.72;98.04
9139;BME280;4604;48.616;9.548;2022-11-20T01:33:55;96431.16;;;5.64;99.07
9139;BME280;4604;48.616;9.548;2022-11-20T01:36:24;96386.47;;;5.33;99.00
9139;BME280;4604;48.616;9.548;2022-11-20T01:38:52;96437.22;;;5.64;99.77
9139;BME280;4604;48.616;9.548;2022-11-20T01:41:19;96432.47;;;5.69;99.56
9139;BME280;4604;48.616;9.548;2022-11-20T01:44:04;96432.72;;;5.66;100.00
9139;BME280;4604;48.616;9.548;2022-11-20T01:46:31;96434.50;;;5.66;100.00
9139;BME280;4604;48.616;9.548;2022-11-20T01:49:02;96432.81;;;5.65;100.00
9139;BME280;4604;48.616;9.548;2022-11-20T01:51:34;96433.19;;;5.71;100.00
9139;BME280;4604;48.616;9.548;2022-11-20T01:54:04;96426.25;;;5.70;100.00
9139;BME280;4604;48.616;9.548;2022-11-20T01:56:35;96426.88;;;5.74;99.76
9139;BME280;4604;48.616;9.548;2022-11-20T01:59:07;96423.91;;;5.67;100.00
9139;BME280;4604;48.616;9.548;2022-11-20T02:01:34;96419.84;;;5.63;100.00
9139;BME280;4604;48.616;9.548;2022-11-20T02:04:02;96428.56;;;5.64;100.00
9139;BME280;4604;48.616;9.548;2022-11-20T02:06:31;96431.88;;;5.66;100.00
9139;BME280;4604;48.616;9.548;2022-11-20T02:08:59;96431.50;;;5.70;100.00
9139;BME280;4604;48.616;9.548;2022-11-20T02:11:26;96425.44;;;5.70;100.00
9139;BME280;4604;48.616;9.548;2022-11-20T02:13:53;96420.22;;;5.58;100.00
9139;BME280;4604;48.616;9.548;2022-11-20T02:16:24;96426.75;;;5.64;100.00
9139;BME280;4604;48.616;9.548;2022-11-20T02:18:53;96427.69;;;5.63;100.00
9139;BME280;4604;48.616;9.548;2022-11-20T02:21:28;96421.53;;;5.64;100.00
9139;BME280;4604;48.616;9.548;2022-11-20T02:24:06;96432.00;;;5.64;100.00
9139;BME280;4604;48.616;9.548;2022-11-20T02:26:39;96425.09;;;5.63;100.00
9139;BME280;4604;48.616;9.548;2022-11-20T02:29:09;96427.94;;;5.60;100.00
9139;BME280;4604;48.616;9.548;2022-11-20T02:31:41;96429.28;;;5.66;100.00
9139;BME280;4604;48.616;9.548;2022-11-20T02:34:09;96423.53;;;5.72;99.23
9139;BME280;4604;48.616;9.548;2022-11-20T02:36:37;96423.31;;;5.64;99.02
9139;BME280;4604;48.616;9.548;2022-11-20T02:39:09;96407.16;;;5.58;99.41
9139;BME280;4604;48.616;9.548;2022-11-20T02:41:37;96420.22;;;5.58;99.52
9139;BME280;4604;48.616;9.548;2022-11-20T02:44:06;96426.28;;;5.59;99.30
9139;BME280;4604;48.616;9.548;2022-11-20T02:46:34;96432.94;;;5.63;98.59
9139;BME280;4604;48.616;9.548;2022-11-20T02:49:01;96433.66;;;5.65;98.29
9139;BME280;4604;48.616;9.548;2022-11-20T02:51:29;96424.25;;;5.74;97.43
9139;BME280;4604;48.616;9.548;2022-11-20T02:53:56;96427.78;;;5.84;94.11
9139;BME280;4604;48.616;9.548;2022-11-20T02:56:24;96405.47;;;5.57;93.97
9139;BME280;4604;48.616;9.548;2022-11-20T02:58:51;96411.88;;;5.65;93.17
9139;BME280;4604;48.616;9.548;2022-11-20T03:01:18;96412.84;;;5.64;94.28
9139;BME280;4604;48.616;9.548;2022-11-20T03:03:45;96428.53;;;5.75;94.54
9139;BME280;4604;48.616;9.548;2022-11-20T03:06:14;96417.00;;;5.66;94.56
9139;BME280;4604;48.616;9.548;2022-11-20T03:08:41;96420.81;;;5.73;94.25
9139;BME280;4604;48.616;9.548;2022-11-20T03:11:08;96427.34;;;5.68;95.19
9139;BME280;4604;48.616;9.548;2022-11-20T03:13:36;96427.34;;;5.68;94.83
9139;BME280;4604;48.616;9.548;2022-11-20T03:16:08;96417.59;;;5.70;94.44
9139;BME280;4604;48.616;9.548;2022-11-20T03:18:35;96418.41;;;5.70;95.18
9139;BME280;4604;48.616;9.548;2022-11-20T03:21:02;96429.84;;;5.69;95.58
9139;BME280;4604;48.616;9.548;2022-11-20T03:23:30;96421.03;;;5.70;95.74
9139;BME280;4604;48.616;9.548;2022-11-20T03:26:08;96428.50;;;5.86;93.50
9139;BME280;4604;48.616;9.548;2022-11-20T03:28:36;96418.16;;;5.85;92.92
9139;BME280;4604;48.616;9.548;2022-11-20T03:31:08;96415.88;;;5.91;93.03
9139;BME280;4604;48.616;9.548;2022-11-20T03:33:36;96418.28;;;5.83;94.56
9139;BME280;4604;48.616;9.548;2022-11-20T03:36:07;96384.78;;;5.54;94.99
9139;BME280;4604;48.616;9.548;2022-11-20T03:38:34;96428.53;;;5.75;95.86
9139;BME280;4604;48.616;9.548;2022-11-20T03:41:02;96433.28;;;5.81;95.67
9139;BME280;4604;48.616;9.548;2022-11-20T03:43:29;96426.88;;;5.74;94.14
9139;BME280;4604;48.616;9.548;2022-11-20T03:45:58;96424.34;;;5.72;95.85
9139;BME280;4604;48.616;9.548;2022-11-20T03:48:25;96422.97;;;5.68;96.42
9139;BME280;4604;48.616;9.548;2022-11-20T03:50:52;96427.34;;;5.68;95.74
9139;BME280;4604;48.616;9.548;2022-11-20T03:53:20;96426.41;;;5.57;97.91
9139;BME280;4604;48.616;9.548;2022-11-20T03:55:50;96435.44;;;5.53;98.32
9139;BME280;4604;48.616;9.548;2022-11-20T03:58:17;96422.00;;;5.58;96.83
9139;BME280;4604;48.616;9.548;2022-11-20T04:00:44;96417.94;;;5.65;94.64
9139;BME280;4604;48.616;9.548;2022-11-20T04:03:12;96431.75;;;5.67;94.58
9139;BME280;4604;48.616;9.548;2022-11-20T04:05:39;96436.72;;;5.70;95.73
9139;BME280;4604;48.616;9.548;2022-11-20T04:08:07;96428.53;;;5.75;95.44
9139;BME280;4604;48.616;9.548;2022-11-20T04:10:33;96428.53;;;5.75;94.24
9139;BME280;4604;48.616;9.548;2022-11-20T04:13:00;96433.75;;;5.75;95.54
9139;BME280;4604;48.616;9.548;2022-11-20T04:15:27;96439.34;;;5.82;94.27
9139;BME280;4604;48.616;9.548;2022-11-20T04:17:54;96432.22;;;5.84;94.35
9139;BME280;4604;48.616;9.548;2022-11-20T04:20:22;96429.69;;;5.82;93.50
9139;BME280;4604;48.616;9.548;2022-11-20T04:22:52;96426.97;;;5.84;93.41
9139;BME280;4604;48.616;9.548;2022-11-20T04:25:19;96426.25;;;5.82;93.94
9139;BME280;4604;48.616;9.548;2022-11-20T04:27:46;96423.38;;;5.85;93.80
9139;BME280;4604;48.616;9.548;2022-11-20T04:30:13;96417.19;;;5.97;93.35
9139;BME280;4604;48.616;9.548;2022-11-20T04:32:39;96419.81;;;5.97;93.16
9139;BME280;4604;48.616;9.548;2022-11-20T04:35:07;96410.66;;;6.03;92.25
9139;BME280;4604;48.616;9.548;2022-11-20T04:37:35;96408.19;;;6.22;91.85
9139;BME280;4604;48.616;9.548;2022-11-20T04:40:02;96392.84;;;6.17;91.28
9139;BME280;4604;48.616;9.548;2022-11-20T04:42:29;96407.34;;;6.21;92.06
9139;BME280;4604;48.616;9.548;2022-11-20T04:44:56;96398.38;;;6.03;91.59
9139;BME280;4604;48.616;9.548;2022-11-20T04:47:23;96405.28;;;6.04;90.86
9139;BME280;4604;48.616;9.548;2022-11-20T04:49:50;96404.53;;;6.13;90.91
9139;BME280;4604;48.616;9.548;2022-11-20T04:52:16;96397.50;;;6.14;92.32
9139;BME280;4604;48.616;9.548;2022-11-20T04:54:44;96396.19;;;6.19;91.83
9139;BME280;4604;48.616;9.548;2022-11-20T04:57:13;96391.09;;;6.39;91.57
9139;BME280;4604;48.616;9.548;2022-11-20T04:59:40;96384.75;;;6.20;91.27
9139;BME280;4604;48.616;9.548;2022-11-20T05:02:07;96388.34;;;6.08;91.65
9139;BME280;4604;48.616;9.548;2022-11-20T05:04:33;96374.28;;;6.09;92.20
9139;BME280;4604;48.616;9.548;2022-11-20T05:07:00;96394.38;;;6.20;91.87
9139;BME280;4604;48.616;9.548;2022-11-20T05:09:27;96399.88;;;6.17;91.99
9139;BME280;4604;48.616;9.548;2022-11-20T05:11:55;96394.97;;;6.24;91.35
9139;BME280;4604;48.616;9.548;2022-11-20T05:14:21;96401.78;;;6.15;91.81
9139;BME280;4604;48.616;9.548;2022-11-20T05:16:48;96393.78;;;6.16;91.41
9139;BME280;4604;48.616;9.548;2022-11-20T05:19:15;96398.41;;;6.24;91.77
9139;BME280;4604;48.616;9.548;2022-11-20T05:21:42;96387.28;;;6.11;91.91
9139;BME280;4604;48.616;9.548;2022-11-20T05:24:09;96394.75;;;6.15;92.00
9139;BME280;4604;48.616;9.548;2022-11-20T05:26:36;96387.97;;;6.13;91.96
9139;BME280;4604;48.616;9.548;2022-11-20T05:29:11;96390.22;;;6.17;92.37
9139;BME280;4604;48.616;9.548;2022-11-20T05:31:39;96390.16;;;6.29;91.51
9139;BME280;4604;48.616;9.548;2022-11-20T05:34:07;96396.63;;;6.25;91.77
9139;BME280;4604;48.616;9.548;2022-11-20T05:36:34;96367.88;;;6.02;91.24
9139;BME280;4604;48.616;9.548;2022-11-20T05:39:01;96378.59;;;6.10;91.95
9139;BME280;4604;48.616;9.548;2022-11-20T05:41:28;96384.38;;;6.25;90.49
9139;BME280;4604;48.616;9.548;2022-11-20T05:43:55;96392.16;;;6.36;89.63
9139;BME280;4604;48.616;9.548;2022-11-20T05:46:24;96367.66;;;6.26;88.57
9139;BME280;4604;48.616;9.548;2022-11-20T05:48:51;96370.09;;;6.18;89.08
9139;BME280;4604;48.616;9.548;2022-11-20T05:51:18;96391.13;;;6.28;89.42
9139;BME280;4604;48.616;9.548;2022-11-20T05:53:45;96392.94;;;6.48;86.35
9139;BME280;4604;48.616;9.548;2022-11-20T05:56:15;96386.69;;;6.39;87.13
9139;BME280;4604;48.616;9.548;2022-11-20T05:58:42;96398.97;;;6.39;87.54
9139;BME280;4604;48.616;9.548;2022-11-20T06:01:11;96397.91;;;6.30;87.27
9139;BME280;4604;48.616;9.548;2022-11-20T06:03:39;96396.88;;;6.21;88.73
9139;BME280;4604;48.616;9.548;2022-11-20T06:06:07;96402.00;;;6.23;89.21
9139;BME280;4604;48.616;9.548;2022-11-20T06:08:34;96399.44;;;6.33;89.44
9139;BME280;4604;48.616;9.548;2022-11-20T06:11:06;96401.50;;;6.29;89.23
9139;BME280;4604;48.616;9.548;2022-11-20T06:13:34;96400.63;;;6.40;88.96
9139;BME280;4604;48.616;9.548;2022-11-20T06:16:02;96397.41;;;6.36;88.63
9139;BME280;4604;48.616;9.548;2022-11-20T06:18:30;96387.06;;;6.35;88.29
9139;BME280;4604;48.616;9.548;2022-11-20T06:21:02;96395.47;;;6.38;87.70
9139;BME280;4604;48.616;9.548;2022-11-20T06:23:30;96398.38;;;6.35;87.65
9139;BME280;4604;48.616;9.548;2022-11-20T06:25:58;96401.63;;;6.28;87.15
9139;BME280;4604;48.616;9.548;2022-11-20T06:28:27;96403.03;;;6.32;87.82
9139;BME280;4604;48.616;9.548;2022-11-20T06:30:53;96402.56;;;6.27;88.51
9139;BME280;4604;48.616;9.548;2022-11-20T06:33:20;96398.47;;;6.13;86.02
9139;BME280;4604;48.616;9.548;2022-11-20T06:35:47;96398.59;;;6.11;86.61
9139;BME280;4604;48.616;9.548;2022-11-20T06:38:15;96413.31;;;6.24;85.84
9139;BME280;4604;48.616;9.548;2022-11-20T06:40:42;96408.19;;;6.22;85.42
9139;BME280;4604;48.616;9.548;2022-11-20T06:43:09;96420.72;;;6.18;85.70
9139;BME280;4604;48.616;9.548;2022-11-20T06:45:36;96409.84;;;6.23;86.50
9139;BME280;4604;48.616;9.548;2022-11-20T06:48:03;96408.06;;;6.24;86.97
9139;BME280;4604;48.616;9.548;2022-11-20T06:50:31;96414.69;;;6.39;87.18
9139;BME280;4604;48.616;9.548;2022-11-20T06:53:00;96418.44;;;6.25;87.12
9139;BME280;4604;48.616;9.548;2022-11-20T06:55:29;96413.94;;;6.16;87.99
9139;BME280;4604;48.616;9.548;2022-11-20T06:57:55;96418.72;;;6.11;88.66
9139;BME280;4604;48.616;9.548;2022-11-20T07:00:22;96419.88;;;6.18;89.46
9139;BME280;4604;48.616;9.548;2022-11-20T07:02:49;96423.47;;;6.17;89.19
9139;BME280;4604;48.616;9.548;2022-11-20T07:05:15;96427.84;;;6.16;88.74
9139;BME280;4604;48.616;9.548;2022-11-20T07:07:42;96413.00;;;6.17;89.17
9139;BME280;4604;48.616;9.548;2022-11-20T07:10:10;96407.03;;;6.15;90.36
9139;BME280;4604;48.616;9.548;2022-11-20T07:12:38;96423.88;;;6.33;89.80
9139;BME280;4604;48.616;9.548;2022-11-20T07:15:07;96423.66;;;6.25;89.72
9139;BME280;4604;48.616;9.548;2022-11-20T07:17:34;96429.91;;;6.45;89.51
9139;BME280;4604;48.616;9.548;2022-11-20T07:20:01;96419.00;;;6.29;89.27
9139;BME280;4604;48.616;9.548;2022-11-20T07:22:28;96423.28;;;6.30;90.23
9139;BME280;4604;48.616;9.548;2022-11-20T07:24:54;96418.38;;;6.36;89.74
9139;BME280;4604;48.616;9.548;2022-11-20T07:27:21;96433.25;;;6.36;90.10
9139;BME280;4604;48.616;9.548;2022-11-20T07:29:49;96427.47;;;6.32;89.55
9139;BME280;4604;48.616;9.548;2022-11-20T07:32:16;96431.97;;;6.30;89.73
9139;BME280;4604;48.616;9.548;2022-11-20T07:34:43;96429.59;;;6.59;89.02
9139;BME280;4604;48.616;9.548;2022-11-20T07:37:09;96427.59;;;6.73;87.57
9139;BME280;4604;48.616;9.548;2022-11-20T07:39:36;96430.59;;;6.68;88.05
9139;BME280;4604;48.616;9.548;2022-11-20T07:42:03;96440.59;;;6.74;87.91
9139;BME280;4604;48.616;9.548;2022-11-20T07:44:29;96434.78;;;6.71;87.04
9139;BME280;4604;48.616;9.548;2022-11-20T07:46:59;96401.00;;;6.35;87.85
9139;BME280;4604;48.616;9.548;2022-11-20T07:49:26;96431.06;;;6.52;88.38
9139;BME280;4604;48.616;9.548;2022-11-20T07:51:53;96438.34;;;6.49;89.35
9139;BME280;4604;48.616;9.548;2022-11-20T07:54:20;96443.69;;;6.58;89.17
9139;BME280;4604;48.616;9.548;2022-11-20T07:56:47;96424.69;;;6.66;87.48
9139;BME280;4604;48.616;9.548;2022-11-20T07:59:14;96434.25;;;6.56;87.37
9139;BME280;4604;48.616;9.548;2022-11-20T08:01:41;96431.50;;;6.57;87.63
9139;BME280;4604;48.616;9.548;2022-11-20T08:04:09;96421.19;;;6.65;87.65
9139;BME280;4604;48.616;9.548;2022-11-20T08:06:36;96414.25;;;6.55;86.81
9139;BME280;4604;48.616;9.548;2022-11-20T08:09:03;96425.88;;;6.62;87.33
9139;BME280;4604;48.616;9.548;2022-11-20T08:11:30;96420.00;;;6.49;87.26
9139;BME280;4604;48.616;9.548;2022-11-20T08:14:14;96435.72;;;6.70;88.20
9139;BME280;4604;48.616;9.548;2022-11-20T08:16:42;96411.88;;;6.73;85.91
9139;BME280;4604;48.616;9.548;2022-11-20T08:19:11;96427.59;;;6.73;85.80
9139;BME280;4604;48.616;9.548;2022-11-20T08:21:38;96413.66;;;6.72;85.58
9139;BME280;4604;48.616;9.548;2022-11-20T08:24:06;96432.41;;;6.89;84.88
9139;BME280;4604;48.616;9.548;2022-11-20T08:26:33;96428.44;;;6.94;84.64
9139;BME280;4604;48.616;9.548;2022-11-20T08:29:00;96427.81;;;6.81;84.38
9139;BME280;4604;48.616;9.548;2022-11-20T08:31:27;96442.47;;;6.83;84.02
9139;BME280;4604;48.616;9.548;2022-11-20T08:33:54;96440.66;;;6.84;84.68
9139;BME280;4604;48.616;9.548;2022-11-20T08:36:23;96434.44;;;6.85;84.29
9139;BME280;4604;48.616;9.548;2022-11-20T08:38:51;96452.13;;;6.83;84.85
9139;BME280;4604;48.616;9.548;2022-11-20T08:41:19;96456.41;;;6.84;84.61
9139;BME280;4604;48.616;9.548;2022-11-20T08:43:54;96440.28;;;6.89;85.04
9139;BME280;4604;48.616;9.548;2022-11-20T08:46:21;96460.59;;;6.75;83.55
9139;BME280;4604;48.616;9.548;2022-11-20T08:48:48;96446.88;;;6.83;84.85
9139;BME280;4604;48.616;9.548;2022-11-20T08:51:15;96453.78;;;6.84;85.57
9139;BME280;4604;48.616;9.548;2022-11-20T08:53:44;96454.59;;;6.84;86.13
9139;BME280;4604;48.616;9.548;2022-11-20T08:56:11;96448.59;;;6.94;84.29
9139;BME280;4604;48.616;9.548;2022-11-20T08:58:38;96457.38;;;6.83;85.00
9139;BME280;4604;48.616;9.548;2022-11-20T09:01:05;96452.44;;;6.90;83.84
9139;BME280;4604;48.616;9.548;2022-11-20T09:03:32;96447.84;;;7.03;84.55
9139;BME280;4604;48.616;9.548;2022-11-20T09:05:59;96454.88;;;7.02;84.08
9139;BME280;4604;48.616;9.548;2022-11-20T09:08:27;96445.72;;;6.97;83.77
9139;BME280;4604;48.616;9.548;2022-11-20T09:10:56;96460.88;;;6.93;84.52
9139;BME280;4604;48.616;9.548;2022-11-20T09:13:24;96449.88;;;6.78;85.27
9139;BME280;4604;48.616;9.548;2022-11-20T09:15:55;96458.13;;;6.95;85.58
9139;BME280;4604;48.616;9.548;2022-11-20T09:18:23;96451.34;;;6.92;85.51
9139;BME280;4604;48.616;9.548;2022-11-20T09:20:50;96461.16;;;6.90;85.50
9139;BME280;4604;48.616;9.548;2022-11-20T09:23:17;96456.97;;;6.88;85.06
9139;BME280;4604;48.616;9.548;2022-11-20T09:25:44;96449.75;;;6.80;86.35
9139;BME280;4604;48.616;9.548;2022-11-20T09:28:12;96454.97;;;6.80;86.36
9139;BME280;4604;48.616;9.548;2022-11-20T09:30:39;96463.19;;;6.86;86.22
9139;BME280;4604;48.616;9.548;2022-11-20T09:33:12;96459.03;;;7.05;85.33
9139;BME280;4604;48.616;9.548;2022-11-20T09:35:38;96456.84;;;6.89;86.61
9139;BME280;4604;48.616;9.548;2022-11-20T09:38:11;96443.66;;;6.79;86.00
9139;BME280;4604;48.616;9.548;2022-11-20T09:40:43;96457.34;;;7.04;86.45
9139;BME280;4604;48.616;9.548;2022-11-20T09:43:18;96469.97;;;6.89;86.53
9139;BME280;4604;48.616;9.548;2022-11-20T09:45:56;96474.00;;;6.93;87.14
9139;BME280;4604;48.616;9.548;2022-11-20T09:48:45;96494.16;;;6.93;87.45
9139;BME280;4604;48.616;9.548;2022-11-20T09:51:23;96478.22;;;6.84;88.78
9139;BME280;4604;48.616;9.548;2022-11-20T09:54:04;96456.34;;;6.74;89.03
9139;BME280;4604;48.616;9.548;2022-11-20T09:56:38;96479.03;;;6.85;89.06
9139;BME280;4604;48.616;9.548;2022-11-20T09:59:25;96487.75;;;6.85;88.78
9139;BME280;4604;48.616;9.548;2022-11-20T10:01:55;96488.22;;;6.91;88.72
9139;BME280;4604;48.616;9.548;2022-11-20T10:04:22;96485.50;;;6.81;89.00
9139;BME280;4604;48.616;9.548;2022-11-20T10:06:55;96487.31;;;6.80;89.93
9139;BME280;4604;48.616;9.548;2022-11-20T10:09:25;96495.94;;;6.71;90.30
9139;BME280;4604;48.616;9.548;2022-11-20T10:12:04;96479.66;;;6.56;91.10
9139;BME280;4604;48.616;9.548;2022-11-20T10:14:46;96479.97;;;6.63;91.91
9139;BME280;4604;48.616;9.548;2022-11-20T10:17:28;96474.44;;;6.77;91.61
9139;BME280;4604;48.616;9.548;2022-11-20T10:20:14;96482.94;;;6.70;92.49
9139;BME280;4604;48.616;9.548;2022-11-20T10:22:53;96474.88;;;6.61;93.68
9139;BME280;4604;48.616;9.548;2022-11-20T10:25:28;96488.09;;;6.60;93.96
9139;BME280;4604;48.616;9.548;2022-11-20T10:28:15;96416.53;;;6.16;94.15
9139;BME280;4604;48.616;9.548;2022-11-20T10:30:53;96490.78;;;6.49;96.10
9139;BME280;4604;48.616;9.548;2022-11-20T10:33:23;96487.91;;;6.52;96.91
9139;BME280;4604;48.616;9.548;2022-11-20T10:35:55;96487.06;;;6.51;96.66
9139;BME280;4604;48.616;9.548;2022-11-20T10:38:31;96478.13;;;6.54;96.00
9139;BME280;4604;48.616;9.548;2022-11-20T10:41:02;96477.25;;;6.64;95.37
9139;BME280;4604;48.616;9.548;2022-11-20T10:43:44;96479.59;;;6.68;95.37
9139;BME280;4604;48.616;9.548;2022-11-20T10:46:15;96482.47;;;6.64;95.40
9139;BME280;4604;48.616;9.548;2022-11-20T10:48:44;96473.75;;;6.43;95.85
9139;BME280;4604;48.616;9.548;2022-11-20T10:51:18;96486.38;;;6.49;95.79
9139;BME280;4604;48.616;9.548;2022-11-20T10:53:54;96481.50;;;6.65;95.06
9139;BME280;4604;48.616;9.548;2022-11-20T10:56:30;96486.44;;;6.59;97.12
9139;BME280;4604;48.616;9.548;2022-11-20T10:59:11;96475.19;;;6.68;96.44
9139;BME280;4604;48.616;9.548;2022-11-20T11:01:45;96470.34;;;6.63;96.72
9139;BME280;4604;48.616;9.548;2022-11-20T11:04:32;96472.06;;;6.74;96.73
9139;BME280;4604;48.616;9.548;2022-11-20T11:07:07;96478.88;;;6.65;95.27
9139;BME280;4604;48.616;9.548;2022-11-20T11:09:39;96471.44;;;6.61;96.50
9139;BME280;4604;48.616;9.548;2022-11-20T11:12:09;96466.56;;;6.56;95.25
9139;BME280;4604;48.616;9.548;2022-11-20T11:14:48;96423.91;;;6.54;93.94
9139;BME280;4604;48.616;9.548;2022-11-20T11:17:25;96466.81;;;6.74;94.52
9139;BME280;4604;48.616;9.548;2022-11-20T11:20:01;96457.97;;;6.54;94.67
9139;BME280;4604;48.616;9.548;2022-11-20T11:22:30;96458.31;;;6.61;95.18
9139;BME280;4604;48.616;9.548;2022-11-20T11:24:57;96458.16;;;6.62;95.06
9139;BME280;4604;48.616;9.548;2022-11-20T11:27:24;96454.34;;;6.67;95.75
9139;BME280;4604;48.616;9.548;2022-11-20T11:30:02;96462.03;;;6.58;96.80
9139;BME280;4604;48.616;9.548;2022-11-20T11:32:31;96471.66;;;6.58;97.96
9139;BME280;4604;48.616;9.548;2022-11-20T11:34:59;96466.78;;;6.53;99.32
9139;BME280;4604;48.616;9.548;2022-11-20T11:37:31;96445.81;;;6.53;98.24
9139;BME280;4604;48.616;9.548;2022-11-20T11:39:59;96448.78;;;6.60;98.47
9139;BME280;4604;48.616;9.548;2022-11-20T11:42:28;96446.41;;;6.57;98.67
9139;BME280;4604;48.616;9.548;2022-11-20T11:44:57;96435.81;;;6.58;98.47
9139;BME280;4604;48.616;9.548;2022-11-20T11:47:33;96451.47;;;6.70;97.38
9139;BME280;4604;48.616;9.548;2022-11-20T11:52:49;96442.72;;;6.80;96.82
9139;BME280;4604;48.616;9.548;2022-11-20T11:55:22;96430.63;;;6.89;97.17
9139;BME280;4604;48.616;9.548;2022-11-20T11:57:54;96411.53;;;6.87;96.85
9139;BME280;4604;48.616;9.548;2022-11-20T12:00:26;96421.22;;;6.86;95.92
9139;BME280;4604;48.616;9.548;2022-11-20T12:02:59;96415.19;;;6.96;97.24
9139;BME280;4604;48.616;9.548;2022-11-20T12:05:36;96419.34;;;6.98;96.35
9139;BME280;4604;48.616;9.548;2022-11-20T12:08:12;96423.03;;;7.17;94.50
9139;BME280;4604;48.616;9.548;2022-11-20T12:10:45;96425.47;;;7.08;95.85
9139;BME280;4604;48.616;9.548;2022-11-20T12:13:42;96411.91;;;7.24;94.57
9139;BME280;4604;48.616;9.548;2022-11-20T12:16:13;96412.81;;;7.44;91.38
9139;BME280;4604;48.616;9.548;2022-11-20T12:18:42;96413.97;;;7.61;89.57
9139;BME280;4604;48.616;9.548;2022-11-20T12:21:18;96390.59;;;7.58;89.74
9139;BME280;4604;48.616;9.548;2022-11-20T12:23:57;96409.03;;;7.87;88.79
9139;BME280;4604;48.616;9.548;2022-11-20T12:26:38;96401.47;;;8.04;88.07
9139;BME280;4604;48.616;9.548;2022-11-20T12:29:14;96396.88;;;7.86;86.19
9139;BME280;4604;48.616;9.548;2022-11-20T12:32:20;96394.50;;;7.64;86.21
9139;BME280;4604;48.616;9.548;2022-11-20T12:35:00;96380.06;;;7.48;86.97
9139;BME280;4604;48.616;9.548;2022-11-20T12:37:37;96394.16;;;7.47;87.78
9139;BME280;4604;48.616;9.548;2022-11-20T12:40:22;96392.13;;;7.70;86.90
9139;BME280;4604;48.616;9.548;2022-11-20T12:43:02;96395.75;;;7.69;86.11
9139;BME280;4604;48.616;9.548;2022-11-20T12:46:14;96391.50;;;7.78;86.04
9139;BME280;4604;48.616;9.548;2022-11-20T12:48:58;96386.25;;;7.88;84.11
9139;BME280;4604;48.616;9.548;2022-11-20T12:51:50;96386.91;;;7.80;83.63
9139;BME280;4604;48.616;9.548;2022-11-20T12:54:50;96389.16;;;7.94;84.08
9139;BME280;4604;48.616;9.548;2022-11-20T12:57:26;96377.97;;;7.92;81.85
9139;BME280;4604;48.616;9.548;2022-11-20T13:00:07;96402.44;;;7.93;80.98
9139;BME280;4604;48.616;9.548;2022-11-20T13:05:24;96384.56;;;7.87;79.11
9139;BME280;4604;48.616;9.548;2022-11-20T13:07:56;96403.53;;;7.81;79.91
9139;BME280;4604;48.616;9.548;2022-11-20T13:10:33;96400.16;;;7.69;80.26
9139;BME280;4604;48.616;9.548;2022-11-20T13:13:11;96398.66;;;7.66;81.59
9139;BME280;4604;48.616;9.548;2022-11-20T13:15:47;96387.56;;;7.63;81.95
9139;BME280;4604;48.616;9.548;2022-11-20T13:18:17;96393.78;;;7.62;82.28
9139;BME280;4604;48.616;9.548;2022-11-20T13:20:46;96404.69;;;7.57;83.42
9139;BME280;4604;48.616;9.548;2022-11-20T13:23:25;96395.25;;;7.45;84.72
9139;BME280;4604;48.616;9.548;2022-11-20T13:26:04;96392.09;;;7.41;85.80
9139;BME280;4604;48.616;9.548;2022-11-20T13:28:32;96376.81;;;7.25;85.78
9139;BME280;4604;48.616;9.548;2022-11-20T13:30:58;96391.06;;;7.33;85.67
9139;BME280;4604;48.616;9.548;2022-11-20T13:33:29;96389.88;;;7.46;84.52
9139;BME280;4604;48.616;9.548;2022-11-20T13:35:59;96356.38;;;7.29;85.42
9139;BME280;4604;48.616;9.548;2022-11-20T13:38:28;96387.78;;;7.40;84.67
9139;BME280;4604;48.616;9.548;2022-11-20T13:41:08;96391.81;;;7.44;79.89
9139;BME280;4604;48.616;9.548;2022-11-20T13:43:48;96370.78;;;7.35;82.48
9139;BME280;4604;48.616;9.548;2022-11-20T13:46:15;96386.16;;;7.49;79.62
9139;BME280;4604;48.616;9.548;2022-11-20T13:48:45;96378.97;;;7.41;77.59
9139;BME280;4604;48.616;9.548;2022-11-20T13:51:20;96377.28;;;7.40;76.60
9139;BME280;4604;48.616;9.548;2022-11-20T13:57:01;96377.81;;;7.34;76.02